Time;durP1;ratioP1;P1;durP2;ratioP2;P2;SDS_P1;SDS_P2;PMS_P1;PMS_P2;Temp;Humidity;BMP_temperature;BMP_pressure;BME280_temperature;BME280_humidity;BME280_pressure;Samples;Min_cycle;Max_cycle;Signal;HPM_P1;HPM_P2
2023/10/09 00:01:05;;;;;;;21.70;13.43;;;;;;;14.61;83.41;101958.75;5079210;28;20075;-68
2023/10/09 00:03:31;;;;;;;22.27;12.07;;;;;;;14.63;83.29;101958.66;5080867;28;20023;-68
2023/10/09 00:05:57;;;;;;;23.33;14.27;;;;;;;14.65;84.57;101956.84;5070565;28;20033;-68
2023/10/09 00:08:26;;;;;;;22.50;14.00;;;;;;;14.65;83.39;101954.16;5079350;28;20373;-68
2023/10/09 00:10:57;;;;;;;22.38;14.23;;;;;;;14.69;84.75;101947.81;5081466;28;20432;-68
2023/10/09 00:13:30;;;;;;;23.15;13.68;;;;;;;14.71;84.63;101948.59;5081409;28;20020;-68
2023/10/09 00:16:01;;;;;;;23.48;15.50;;;;;;;14.76;86.23;101943.94;5081067;28;20494;-68
2023/10/09 00:18:33;;;;;;;25.27;14.77;;;;;;;14.81;85.89;101939.31;5079112;28;20020;-68
2023/10/09 00:21:12;;;;;;;21.52;12.63;;;;;;;14.82;84.15;101938.38;5081091;28;20285;-68
2023/10/09 00:23:40;;;;;;;25.45;14.55;;;;;;;14.91;86.46;101945.13;5070709;28;20035;-68
2023/10/09 00:26:08;;;;;;;23.10;15.70;;;;;;;14.96;85.60;101945.78;5078461;28;20024;-68
2023/10/09 00:28:41;;;;;;;31.13;16.40;;;;;;;14.99;86.83;101927.91;5079677;28;20111;-68
2023/10/09 00:31:07;;;;;;;23.48;14.35;;;;;;;14.99;86.32;101927.03;5080013;28;20024;-68
2023/10/09 00:33:34;;;;;;;24.40;14.73;;;;;;;15.01;86.41;101917.19;5079514;28;20032;-68
2023/10/09 00:36:14;;;;;;;23.90;12.75;;;;;;;15.04;85.42;101922.38;5082483;28;20055;-68
2023/10/09 00:38:39;;;;;;;23.48;14.35;;;;;;;15.12;86.11;101916.75;5072274;28;20031;-69
2023/10/09 00:41:10;;;;;;;20.10;13.43;;;;;;;15.15;85.30;101916.59;5078551;28;20028;-68
2023/10/09 00:43:37;;;;;;;23.52;14.90;;;;;;;15.19;87.18;101908.41;5067512;28;20024;-69
2023/10/09 00:46:12;;;;;;;22.95;15.13;;;;;;;15.24;86.67;101903.75;5082760;28;20396;-69
2023/10/09 00:48:40;;;;;;;23.83;14.70;;;;;;;15.30;86.51;101914.19;5081701;28;20047;-69
2023/10/09 00:51:16;;;;;;;29.38;15.95;;;;;;;15.36;85.73;101912.19;5081519;28;20051;-69
2023/10/09 00:53:50;;;;;;;22.30;14.63;;;;;;;15.42;86.42;101917.22;5072757;28;20495;-69
2023/10/09 00:56:28;;;;;;;21.30;13.80;;;;;;;15.46;86.05;101925.03;5081511;28;20093;-68
2023/10/09 00:58:59;;;;;;;24.13;14.15;;;;;;;15.52;86.39;101922.09;5071278;28;20039;-69
2023/10/09 01:01:34;;;;;;;23.38;14.85;;;;;;;15.57;86.38;101924.56;5078524;28;20025;-69
2023/10/09 01:04:06;;;;;;;23.92;14.95;;;;;;;15.61;86.33;101923.50;5074952;28;20055;-68
2023/10/09 01:06:42;;;;;;;22.67;14.52;;;;;;;15.64;86.36;101922.53;5078385;28;20387;-69
2023/10/09 01:09:09;;;;;;;22.40;14.52;;;;;;;15.66;85.88;101910.84;5072079;28;20131;-69
2023/10/09 01:11:34;;;;;;;18.88;13.73;;;;;;;15.69;85.54;101920.53;5078388;28;20111;-68
2023/10/09 01:16:34;;;;;;;18.92;13.52;;;;;;;15.70;85.60;101917.78;5080873;28;20024;-68
2023/10/09 01:19:00;;;;;;;24.27;14.40;;;;;;;15.56;85.05;101912.16;5080868;28;20479;-69
2023/10/09 01:21:26;;;;;;;21.25;14.43;;;;;;;15.56;86.09;101915.69;5081670;28;20177;-69
2023/10/09 01:26:39;;;;;;;24.30;14.50;;;;;;;15.45;86.69;101911.78;5078978;28;20112;-69
2023/10/09 01:29:10;;;;;;;21.70;12.93;;;;;;;15.54;85.05;101912.25;5080452;28;20032;-69
2023/10/09 01:31:37;;;;;;;19.50;12.63;;;;;;;15.57;84.55;101921.88;5080536;28;20043;-69
2023/10/09 01:34:09;;;;;;;19.83;13.38;;;;;;;15.55;85.09;101921.97;5081000;28;20028;-68
2023/10/09 01:36:38;;;;;;;;;;;;;;;15.71;83.45;101922.19;5080759;28;20086;-69
2023/10/09 01:39:21;;;;;;;20.20;14.38;;;;;;;15.72;85.52;101925.75;5083076;28;19917;-69
2023/10/09 01:41:47;;;;;;;;;;;;;;;15.88;84.13;101928.56;5076866;28;20394;-69
2023/10/09 01:44:14;;;;;;;23.15;14.23;;;;;;;15.64;84.85;101917.22;5074206;28;20015;-68
2023/10/09 01:46:41;;;;;;;21.73;13.90;;;;;;;15.59;85.60;101920.03;5082609;28;20472;-69
2023/10/09 01:49:10;;;;;;;20.58;13.65;;;;;;;15.56;85.35;101913.03;5081132;28;20040;-68
2023/10/09 01:51:36;;;;;;;23.50;14.75;;;;;;;15.69;85.49;101910.72;5084127;28;20131;-68
2023/10/09 01:54:02;;;;;;;24.33;13.77;;;;;;;15.68;85.62;101913.47;5079252;28;20062;-68
2023/10/09 01:56:28;;;;;;;18.35;12.75;;;;;;;15.64;84.46;101917.22;5084119;28;20028;-68
2023/10/09 01:58:57;;;;;;;22.40;13.27;;;;;;;15.65;84.34;101916.25;5081315;28;20514;-68
2023/10/09 02:01:22;;;;;;;23.05;14.55;;;;;;;15.67;85.19;101912.63;5081444;28;20483;-69
2023/10/09 02:03:51;;;;;;;20.52;13.30;;;;;;;15.71;84.55;101906.19;5081284;28;20103;-68
2023/10/09 02:06:32;;;;;;;24.27;14.95;;;;;;;15.68;85.86;101909.00;5084657;28;20031;-68
2023/10/09 02:08:57;;;;;;;25.88;13.65;;;;;;;15.68;84.20;101903.66;5081161;28;20124;-68
2023/10/09 02:11:36;;;;;;;21.20;14.43;;;;;;;15.72;85.43;101907.06;5081246;28;20108;-69
2023/10/09 02:14:05;;;;;;;24.95;14.55;;;;;;;15.72;85.26;101910.59;5080822;28;20018;-68
2023/10/09 02:16:41;;;;;;;21.85;13.85;;;;;;;15.76;84.99;101905.97;5084066;28;20400;-69
2023/10/09 02:19:08;;;;;;;21.70;14.02;;;;;;;15.76;84.99;101906.88;5072564;28;20028;-68
2023/10/09 02:21:33;;;;;;;21.17;12.85;;;;;;;15.76;84.27;101898.88;5081462;28;20476;-68
2023/10/09 02:24:05;;;;;;;20.30;13.65;;;;;;;15.77;85.34;101895.25;5076550;28;20039;-68
2023/10/09 02:27:06;;;;;;;18.38;13.32;;;;;;;15.78;84.38;101897.00;5081771;28;20460;-68
2023/10/09 02:29:26;;;;;;;22.00;13.88;;;;;;;15.81;84.61;101888.88;5074676;28;20032;-68
2023/10/09 02:31:52;;;;;;;21.75;12.95;;;;;;;15.73;85.41;101891.00;5081250;28;20417;-68
2023/10/09 02:34:27;;;;;;;23.15;13.80;;;;;;;15.67;85.25;101887.75;5077816;28;20056;-68
2023/10/09 02:37:05;;;;;;;20.05;13.02;;;;;;;15.64;84.55;101888.75;5084160;28;20024;-68
2023/10/09 02:39:43;;;;;;;21.63;12.88;;;;;;;15.68;85.06;101887.69;5073305;28;20024;-69
2023/10/09 02:44:45;;;;;;;19.55;13.73;;;;;;;15.69;84.61;101872.53;5074796;28;20028;-68
2023/10/09 02:47:17;;;;;;;20.67;13.70;;;;;;;15.67;85.45;101864.63;5080630;28;20032;-69
2023/10/09 02:49:43;;;;;;;20.25;13.75;;;;;;;15.67;85.38;101853.97;5073071;28;20025;-68
2023/10/09 02:52:17;;;;;;;22.85;14.73;;;;;;;15.73;85.25;101858.16;5080417;28;20450;-68
2023/10/09 02:54:42;;;;;;;23.88;13.90;;;;;;;15.81;84.28;101866.66;5078981;28;20021;-69
2023/10/09 02:57:08;;;;;;;22.08;12.60;;;;;;;15.95;84.08;101866.03;5079283;28;20035;-68
2023/10/09 02:59:34;;;;;;;19.73;12.98;;;;;;;15.82;83.88;101863.91;5082248;28;20277;-68
2023/10/09 03:02:00;;;;;;;21.15;14.30;;;;;;;15.77;85.43;101863.28;5084104;28;20024;-69
2023/10/09 03:04:30;;;;;;;23.58;14.07;;;;;;;15.81;84.74;101872.00;5083466;28;20085;-68
2023/10/09 03:06:57;;;;;;;19.80;14.05;;;;;;;15.80;84.71;101871.09;5072411;28;20515;-68
2023/10/09 03:09:26;;;;;;;20.30;14.27;;;;;;;15.83;84.59;101870.13;5080656;28;20028;-68
2023/10/09 03:12:02;;;;;;;22.58;14.55;;;;;;;15.89;84.26;101868.97;5082821;28;20052;-68
2023/10/09 03:14:28;;;;;;;17.80;12.82;;;;;;;15.88;84.86;101864.56;5084179;28;20040;-68
2023/10/09 03:16:56;;;;;;;19.15;13.55;;;;;;;15.89;84.01;101868.97;5082125;28;20479;-68
2023/10/09 03:19:22;;;;;;;22.25;14.13;;;;;;;15.89;84.40;101860.97;5080669;28;20024;-68
2023/10/09 03:21:47;;;;;;;24.25;15.00;;;;;;;15.82;83.80;101855.91;5080166;28;20495;-68
2023/10/09 03:24:12;;;;;;;21.92;13.73;;;;;;;15.80;83.87;101855.09;5085332;28;20032;-68
2023/10/09 03:26:38;;;;;;;25.65;14.02;;;;;;;15.78;84.79;101846.31;5083382;28;20071;-69
2023/10/09 03:29:08;;;;;;;23.10;14.15;;;;;;;15.78;85.00;101853.47;5081369;28;20081;-68
2023/10/09 03:31:34;;;;;;;21.38;13.98;;;;;;;15.73;84.98;101843.00;5079623;28;20025;-68
2023/10/09 03:34:00;;;;;;;19.55;13.32;;;;;;;15.74;84.56;101844.72;5084084;28;20498;-68
2023/10/09 03:36:29;;;;;;;20.13;13.10;;;;;;;15.74;83.67;101843.88;5079431;28;20091;-68
2023/10/09 03:38:57;;;;;;;21.45;13.95;;;;;;;15.72;84.17;101846.63;5079710;28;20510;-68
2023/10/09 03:41:26;;;;;;;22.60;14.05;;;;;;;15.70;83.97;101837.81;5081839;28;20032;-68
2023/10/09 03:43:54;;;;;;;23.25;13.68;;;;;;;15.69;83.89;101830.75;5082526;28;20024;-68
2023/10/09 03:46:21;;;;;;;30.60;14.63;;;;;;;15.67;84.58;101821.09;5081122;28;20020;-68
2023/10/09 03:48:51;;;;;;;22.52;14.13;;;;;;;15.73;84.96;101820.81;5083014;28;20031;-68
2023/10/09 03:51:23;;;;;;;17.50;12.85;;;;;;;15.63;83.91;101831.00;5081918;28;20139;-68
2023/10/09 03:53:49;;;;;;;18.67;13.48;;;;;;;15.64;83.85;101829.22;5070774;28;20396;-68
2023/10/09 03:56:17;;;;;;;19.58;13.27;;;;;;;15.65;84.45;101839.81;5079173;28;20028;-68
2023/10/09 03:58:45;;;;;;;21.02;12.93;;;;;;;15.66;84.25;101841.53;5082176;28;20407;-68
2023/10/09 04:04:00;;;;;;;23.63;14.52;;;;;;;15.65;85.00;101839.81;5065008;28;20093;-68
2023/10/09 04:06:31;;;;;;;21.35;14.63;;;;;;;15.64;85.10;101835.44;5078906;28;20224;-68
2023/10/09 04:11:57;;;;;;;20.30;13.27;;;;;;;15.66;84.73;101840.69;5080527;28;20036;-68
2023/10/09 04:14:35;;;;;;;21.98;13.75;;;;;;;15.58;85.05;101830.34;5075805;28;20073;-68
2023/10/09 04:17:05;;;;;;;22.15;13.35;;;;;;;15.55;84.65;101823.34;5081313;28;20048;-68
2023/10/09 04:19:38;;;;;;;22.58;13.52;;;;;;;15.56;85.08;101826.88;5079636;28;20034;-68
2023/10/09 04:22:07;;;;;;;24.45;14.30;;;;;;;15.52;85.55;101811.94;5081707;28;20198;-68
2023/10/09 04:24:41;;;;;;;25.27;15.60;;;;;;;15.48;85.96;101813.03;5086561;28;20456;-69
2023/10/09 04:27:08;;;;;;;22.77;14.27;;;;;;;15.48;86.27;101815.69;5080436;28;20436;-69
2023/10/09 04:29:39;;;;;;;21.17;14.15;;;;;;;15.51;85.75;101810.22;5079343;28;20032;-68
2023/10/09 04:32:15;;;;;;;19.17;14.27;;;;;;;15.52;85.44;101818.13;5080272;28;20025;-68
2023/10/09 04:34:48;;;;;;;21.40;13.85;;;;;;;15.57;85.47;101818.81;5080510;28;20468;-69
2023/10/09 04:39:46;;;;;;;24.20;14.90;;;;;;;15.65;84.94;101846.94;5079516;28;20355;-68
2023/10/09 04:47:36;;;;;;;20.30;13.95;;;;;;;15.71;84.62;101858.19;5081989;28;20036;-68
2023/10/09 04:50:06;;;;;;;23.85;13.85;;;;;;;15.71;84.83;101846.66;5081922;28;20084;-68
2023/10/09 05:03:06;;;;;;;19.42;13.38;;;;;;;15.80;84.53;101849.78;5073559;28;20086;-69
2023/10/09 05:08:28;;;;;;;20.65;12.80;;;;;;;15.66;85.32;101868.19;5080412;28;19912;-68
2023/10/09 05:16:18;;;;;;;24.33;14.45;;;;;;;15.65;85.22;101857.63;5083115;28;20111;-68
2023/10/09 05:18:59;;;;;;;24.23;15.77;;;;;;;15.62;86.17;101853.28;5083310;28;20031;-68
2023/10/09 05:21:36;;;;;;;21.73;14.95;;;;;;;15.63;85.94;101839.00;5082672;28;20086;-68
2023/10/09 05:24:18;;;;;;;22.38;13.82;;;;;;;15.62;86.31;101850.59;5074231;28;20027;-69
2023/10/09 05:31:56;;;;;;;20.83;14.07;;;;;;;15.65;86.45;101861.16;5084589;28;20561;-69
2023/10/09 05:34:22;;;;;;;20.77;13.45;;;;;;;15.64;86.07;101880.75;5080499;28;20024;-69
2023/10/09 05:36:48;;;;;;;24.30;14.52;;;;;;;15.65;86.07;101876.28;5082947;28;20016;-69
2023/10/09 05:39:18;;;;;;;22.77;14.50;;;;;;;15.66;86.12;101881.53;5086756;28;20030;-69
2023/10/09 05:41:59;;;;;;;20.75;14.05;;;;;;;15.68;86.06;101876.16;5085661;28;20487;-68
2023/10/09 05:50:33;;;;;;;21.40;14.48;;;;;;;15.78;85.92;101880.13;5082393;28;20066;-68
2023/10/09 06:03:48;;;;;;;27.45;14.63;;;;;;;15.87;85.01;101908.19;5082168;28;20545;-68
2023/10/09 06:06:32;;;;;;;25.85;15.10;;;;;;;15.90;85.34;101922.25;5082729;28;20025;-68
2023/10/09 06:11:49;;;;;;;22.85;16.35;;;;;;;15.95;85.37;101914.91;5084512;28;20040;-69
2023/10/09 06:14:25;;;;;;;22.23;16.25;;;;;;;15.85;85.75;101913.56;5078003;28;20380;-68
2023/10/09 06:17:17;;;;;;;25.40;16.00;;;;;;;15.84;85.96;101910.97;5076823;28;20491;-68
2023/10/09 06:19:48;;;;;;;27.38;16.70;;;;;;;15.84;85.92;101908.31;5083673;28;20035;-68
2023/10/09 06:25:08;;;;;;;30.70;17.30;;;;;;;15.81;86.82;101898.66;5071726;28;20043;-68
2023/10/09 06:30:24;;;;;;;26.67;16.52;;;;;;;15.83;86.45;101886.13;5082153;28;20077;-68
2023/10/09 06:33:04;;;;;;;25.63;15.52;;;;;;;15.95;85.85;101906.03;5082540;28;20024;-68
2023/10/09 06:35:35;;;;;;;24.35;15.18;;;;;;;16.04;85.31;101909.16;5082672;28;20387;-68
2023/10/09 06:45:54;;;;;;;25.30;15.68;;;;;;;16.13;85.00;101910.50;5084017;28;20028;-67
2023/10/09 06:51:15;;;;;;;27.48;17.15;;;;;;;16.04;85.95;101900.25;5080919;28;20032;-68
2023/10/09 06:59:21;;;;;;;29.33;17.00;;;;;;;16.20;84.95;101893.28;5081287;28;20568;-68
2023/10/09 07:07:01;;;;;;;32.78;18.55;;;;;;;16.25;85.30;101877.91;5081086;28;20037;-68
2023/10/09 07:09:42;;;;;;;26.30;17.55;;;;;;;16.35;84.37;101874.81;5082571;28;20024;-68
2023/10/09 07:12:13;;;;;;;28.70;16.80;;;;;;;16.48;83.73;101868.81;5084019;28;20032;-68
2023/10/09 07:17:26;;;;;;;27.45;16.95;;;;;;;16.45;83.70;101846.75;5085922;28;20043;-68
2023/10/09 07:27:53;;;;;;;28.17;17.63;;;;;;;16.63;83.79;101864.53;5081013;28;20104;-68
2023/10/09 07:35:57;;;;;;;27.33;17.10;;;;;;;16.72;82.92;101914.84;5082178;28;20036;-68
2023/10/09 07:38:29;;;;;;;28.00;17.15;;;;;;;16.67;82.77;101926.66;5074568;28;20029;-68
2023/10/09 07:40:59;;;;;;;24.58;16.33;;;;;;;16.65;83.07;101932.09;5081720;28;20397;-68
2023/10/09 07:43:39;;;;;;;26.52;17.27;;;;;;;16.64;83.00;101929.47;5084101;28;20452;-69
2023/10/09 07:48:57;;;;;;;31.73;16.88;;;;;;;16.65;82.88;101937.44;5084215;28;20169;-69
2023/10/09 07:51:30;;;;;;;25.30;16.40;;;;;;;16.66;83.03;101935.63;5072104;28;20123;-68
2023/10/09 07:53:57;;;;;;;25.60;16.50;;;;;;;16.65;82.83;101932.09;5076592;28;20399;-69
2023/10/09 07:56:23;;;;;;;32.40;18.63;;;;;;;16.63;83.36;101920.59;5083611;28;20028;-69
2023/10/09 07:58:49;;;;;;;23.88;17.58;;;;;;;16.62;83.07;101908.19;5082964;28;20540;-68
2023/10/09 08:01:35;;;;;;;31.50;18.70;;;;;;;16.62;83.24;101916.22;5082743;28;20074;-69
2023/10/09 08:04:14;;;;;;;26.70;16.83;;;;;;;16.62;83.42;101902.00;5080353;28;20031;-69
2023/10/09 08:06:44;;;;;;;31.33;18.77;;;;;;;16.55;83.92;101888.06;5071936;28;20027;-68
2023/10/09 08:11:59;;;;;;;31.02;17.38;;;;;;;16.67;82.96;101935.53;5082593;28;20036;-69
2023/10/09 08:19:56;;;;;;;23.60;16.40;;;;;;;16.88;82.06;101928.34;5081353;28;20089;-70
2023/10/09 08:24:57;;;;;;;28.63;17.92;;;;;;;16.98;82.50;101918.06;5064682;28;20438;-70
2023/10/09 08:33:00;;;;;;;25.58;17.25;;;;;;;17.12;82.01;101894.19;5082993;28;20028;-70
2023/10/09 08:35:47;;;;;;;30.65;18.35;;;;;;;17.23;81.40;101888.28;5070115;28;20078;-70
2023/10/09 08:38:12;;;;;;;28.17;17.38;;;;;;;17.35;80.24;101890.34;5072103;28;20037;-70
2023/10/09 08:40:40;;;;;;;26.45;18.35;;;;;;;17.45;80.17;101888.91;5079288;28;20391;-69
2023/10/09 08:43:09;;;;;;;27.50;17.20;;;;;;;17.59;78.97;101883.69;5082202;28;20024;-69
2023/10/09 08:45:39;;;;;;;24.65;16.20;;;;;;;17.81;79.44;101887.91;5085476;28;20023;-69
2023/10/09 08:48:15;;;;;;;28.65;18.95;;;;;;;17.94;78.46;101885.44;5085626;28;20038;-69
2023/10/09 08:50:42;;;;;;;29.05;17.83;;;;;;;18.02;78.19;101885.91;5083334;28;20025;-71
2023/10/09 08:53:07;;;;;;;27.58;17.95;;;;;;;18.09;78.44;101890.84;5089229;28;20051;-69
2023/10/09 08:55:36;;;;;;;30.73;18.65;;;;;;;18.13;77.50;101885.31;5083267;28;20028;-70
2023/10/09 08:58:01;;;;;;;30.33;18.17;;;;;;;18.33;76.65;101880.59;5083741;28;20040;-70
2023/10/09 09:00:33;;;;;;;27.13;17.30;;;;;;;18.57;76.43;101886.34;5086177;28;20032;-70
2023/10/09 09:03:00;;;;;;;25.63;17.45;;;;;;;18.89;74.71;101882.81;5087045;28;20483;-69
2023/10/09 09:05:28;;;;;;;25.42;16.45;;;;;;;19.30;74.02;101888.38;5084370;28;20107;-69
2023/10/09 09:07:56;;;;;;;25.02;17.35;;;;;;;19.92;70.82;101902.50;5082653;28;20036;-70
2023/10/09 09:10:35;;;;;;;28.95;16.63;;;;;;;20.20;69.63;101923.09;5084541;28;20036;-70
2023/10/09 09:13:03;;;;;;;21.67;16.33;;;;;;;20.12;68.99;101936.13;5087209;28;20106;-70
2023/10/09 09:15:30;;;;;;;24.35;15.77;;;;;;;20.18;68.26;101935.75;5077604;28;20443;-70
2023/10/09 09:18:06;;;;;;;23.30;15.90;;;;;;;20.38;69.36;101939.88;5089580;28;20067;-70
2023/10/09 09:20:36;;;;;;;22.90;15.82;;;;;;;20.82;67.11;101939.69;5084186;28;20385;-70
2023/10/09 09:23:05;;;;;;;23.02;15.27;;;;;;;20.88;66.85;101941.09;5086731;28;20028;-70
2023/10/09 09:25:59;;;;;;;24.17;14.93;;;;;;;20.93;67.52;101940.78;5079404;28;20055;-70
2023/10/09 09:28:26;;;;;;;19.48;13.73;;;;;;;20.89;65.51;101946.41;5078654;28;20031;-70
2023/10/09 09:30:54;;;;;;;24.13;14.05;;;;;;;20.63;66.57;101945.41;5084617;28;20032;-70
2023/10/09 09:33:26;;;;;;;26.90;16.30;;;;;;;20.51;66.26;101951.56;5086102;28;20085;-70
2023/10/09 09:35:59;;;;;;;22.92;15.52;;;;;;;20.41;67.09;101945.03;5077283;28;20035;-70
2023/10/09 09:38:27;;;;;;;25.27;16.33;;;;;;;20.50;67.29;101960.59;5086125;28;20269;-70
2023/10/09 09:40:55;;;;;;;21.27;15.88;;;;;;;20.52;67.15;101961.38;5084435;28;20031;-72
2023/10/09 09:43:22;;;;;;;25.58;15.88;;;;;;;20.54;67.35;101967.50;5082860;28;20040;-72
2023/10/09 09:45:49;;;;;;;24.50;16.73;;;;;;;20.51;66.99;101964.13;5079326;28;20035;-72
2023/10/09 09:48:16;;;;;;;24.65;16.65;;;;;;;20.53;68.05;101967.59;5085925;28;20055;-72
2023/10/09 09:50:46;;;;;;;26.58;17.67;;;;;;;20.58;67.76;101970.84;5085395;28;20033;-69
2023/10/09 09:53:18;;;;;;;28.80;18.50;;;;;;;20.45;67.33;101959.97;5077352;28;20040;-69
2023/10/09 09:55:57;;;;;;;29.13;16.87;;;;;;;20.51;68.17;101974.88;5085268;28;20031;-68
2023/10/09 09:58:26;;;;;;;26.42;18.08;;;;;;;20.37;68.05;101968.53;5082938;28;20611;-69
2023/10/09 10:00:54;;;;;;;27.63;18.15;;;;;;;20.43;68.34;101969.97;5080856;28;20037;-69
2023/10/09 10:03:25;;;;;;;31.65;18.67;;;;;;;20.57;68.87;101966.44;5084264;28;20032;-69
2023/10/09 10:05:56;;;;;;;27.90;18.55;;;;;;;20.84;67.37;101975.41;5084199;28;20128;-67
2023/10/09 10:08:31;;;;;;;26.92;18.13;;;;;;;20.79;67.09;101969.44;5084326;28;20103;-70
2023/10/09 10:10:58;;;;;;;28.50;18.75;;;;;;;21.00;66.53;101969.00;5082614;28;20039;-69
2023/10/09 10:13:41;;;;;;;27.33;19.13;;;;;;;21.22;67.30;101969.31;5083747;28;20408;-69
2023/10/09 10:16:13;;;;;;;28.55;17.88;;;;;;;21.13;66.27;101967.25;5085125;28;20433;-72
2023/10/09 10:19:07;;;;;;;27.48;18.48;;;;;;;21.17;67.35;101957.13;5082903;28;20032;-72
2023/10/09 10:21:41;;;;;;;24.92;18.13;;;;;;;21.15;66.47;101960.78;5082458;28;20032;-72
2023/10/09 10:24:32;;;;;;;25.80;19.20;;;;;;;21.12;67.50;101960.13;5079758;28;20521;-72
2023/10/09 10:27:10;;;;;;;25.50;17.83;;;;;;;21.20;66.88;101962.31;5073949;28;20431;-72
2023/10/09 10:29:38;;;;;;;27.55;19.90;;;;;;;21.17;65.99;101957.13;5082002;28;20032;-72
2023/10/09 10:32:08;;;;;;;29.52;19.23;;;;;;;21.35;65.57;101964.84;5084442;28;20499;-72
2023/10/09 10:35:06;;;;;;;26.60;18.70;;;;;;;21.49;66.02;101969.28;5081100;28;20024;-70
2023/10/09 10:37:50;;;;;;;27.67;18.92;;;;;;;21.71;64.86;101975.91;5076717;28;20031;-70
2023/10/09 10:40:38;;;;;;;29.33;19.20;;;;;;;21.98;64.73;101968.59;5074323;28;20028;-70
2023/10/09 10:43:09;;;;;;;28.48;19.02;;;;;;;22.12;64.48;101964.97;5083591;28;20537;-70
2023/10/09 10:45:43;;;;;;;28.15;19.17;;;;;;;22.48;62.08;101971.38;5082678;28;20084;-70
2023/10/09 10:48:10;;;;;;;29.77;20.48;;;;;;;22.59;62.68;101953.44;5084313;28;20029;-70
2023/10/09 10:50:37;;;;;;;33.25;20.35;;;;;;;22.44;62.14;101953.72;5084237;28;20020;-70
2023/10/09 10:53:13;;;;;;;32.92;19.63;;;;;;;22.51;62.19;101963.06;5075663;28;20169;-70
2023/10/09 10:58:24;;;;;;;30.55;19.23;;;;;;;22.57;62.27;101959.91;5081230;28;20074;-70
2023/10/09 11:03:29;;;;;;;28.63;19.67;;;;;;;22.41;62.30;101969.13;5082515;28;20032;-70
2023/10/09 11:06:13;;;;;;;26.63;19.40;;;;;;;22.50;61.96;101972.13;5079218;28;20092;-69
2023/10/09 11:08:54;;;;;;;30.58;20.15;;;;;;;22.78;61.77;101962.88;5072388;28;20025;-69
2023/10/09 11:11:20;;;;;;;27.02;19.05;;;;;;;22.88;60.79;101969.31;5081175;28;20030;-69
2023/10/09 11:13:57;;;;;;;31.25;19.98;;;;;;;23.01;61.17;101970.16;5084651;28;20368;-69
2023/10/09 11:16:42;;;;;;;28.17;19.52;;;;;;;23.14;60.57;101964.72;5083239;28;20019;-69
2023/10/09 11:19:22;;;;;;;30.15;19.60;;;;;;;23.47;59.98;101972.06;5075168;28;20035;-68
2023/10/09 11:21:58;;;;;;;29.83;19.60;;;;;;;23.78;58.80;101965.19;5083116;28;20459;-68
2023/10/09 11:24:24;;;;;;;30.67;20.23;;;;;;;24.03;57.99;101952.44;5076217;28;20036;-68
2023/10/09 11:26:56;;;;;;;29.63;19.25;;;;;;;23.84;58.43;101953.91;5083209;28;20035;-69
2023/10/09 11:29:23;;;;;;;26.65;18.80;;;;;;;23.89;58.10;101959.81;5083897;28;20024;-68
2023/10/09 11:32:05;;;;;;;26.08;19.73;;;;;;;23.87;59.60;101952.78;5081453;28;20490;-69
2023/10/09 11:34:31;;;;;;;;;;;;;;;24.10;60.07;101956.38;5080903;28;20027;-69
2023/10/09 11:37:38;;;;;;;29.13;19.20;;;;;;;24.05;60.19;101945.06;5080429;28;20002;-69
2023/10/09 11:40:21;;;;;;;27.10;18.67;;;;;;;24.21;57.74;101958.22;5082982;28;20024;-69
2023/10/09 11:42:49;;;;;;;25.20;16.17;;;;;;;24.24;57.67;101950.72;5083249;28;20532;-69
2023/10/09 11:45:28;;;;;;;22.60;16.30;;;;;;;24.40;58.72;101951.25;5070748;28;20016;-68
2023/10/09 11:47:57;;;;;;;22.88;15.77;;;;;;;24.61;57.21;101954.03;5083285;28;20452;-70
2023/10/09 11:55:54;;;;;;;21.42;12.85;;;;;;;24.19;56.94;101951.09;5083101;28;20040;-70
2023/10/09 11:58:24;;;;;;;18.58;11.48;;;;;;;23.83;58.00;101963.00;5080702;28;20062;-70
2023/10/09 12:01:05;;;;;;;18.63;12.00;;;;;;;23.77;58.40;101958.06;5079672;28;20093;-70
2023/10/09 12:03:31;;;;;;;17.25;11.65;;;;;;;23.63;58.56;101956.38;5071618;28;20028;-70
2023/10/09 12:06:11;;;;;;;17.50;11.60;;;;;;;23.49;59.41;101958.44;5073924;28;20024;-70
2023/10/09 12:08:40;;;;;;;19.67;11.70;;;;;;;23.37;58.78;101958.41;5072368;28;20380;-70
2023/10/09 12:11:09;;;;;;;20.95;12.68;;;;;;;23.44;59.74;101961.50;5079398;28;20040;-70
2023/10/09 12:13:35;;;;;;;21.33;12.55;;;;;;;23.50;59.48;101960.16;5082489;28;20086;-70
2023/10/09 12:16:00;;;;;;;22.23;12.95;;;;;;;23.37;59.99;101944.94;5077171;28;20024;-70
2023/10/09 12:18:28;;;;;;;16.42;12.18;;;;;;;23.44;59.68;101948.00;5080862;28;20031;-70
2023/10/09 12:21:02;;;;;;;25.58;13.00;;;;;;;23.22;60.25;101951.47;5079397;28;20440;-71
2023/10/09 12:23:28;;;;;;;17.70;11.88;;;;;;;23.13;61.22;101953.06;5079814;28;20549;-70
2023/10/09 12:25:56;;;;;;;19.92;11.75;;;;;;;22.99;60.91;101946.94;5071681;28;20024;-70
2023/10/09 12:28:22;;;;;;;16.77;10.15;;;;;;;22.88;61.05;101945.88;5079614;28;20107;-70
2023/10/09 12:30:51;;;;;;;16.58;9.32;;;;;;;22.87;60.54;101946.88;5081170;28;20071;-70
2023/10/09 12:33:19;;;;;;;19.45;9.23;;;;;;;22.89;61.16;101946.78;5082713;28;20028;-70
2023/10/09 12:35:45;;;;;;;13.98;8.65;;;;;;;23.04;59.95;101936.72;5082057;28;20031;-72
2023/10/09 12:38:12;;;;;;;12.85;8.35;;;;;;;23.07;59.95;101936.44;5079531;28;20107;-70
2023/10/09 12:40:41;;;;;;;16.25;8.10;;;;;;;23.18;60.02;101928.44;5079565;28;20445;-70
2023/10/09 12:43:15;;;;;;;17.35;8.68;;;;;;;23.49;59.29;101932.31;5081961;28;20032;-70
2023/10/09 12:45:41;;;;;;;11.75;8.30;;;;;;;23.68;58.58;101921.81;5077832;28;20070;-70
2023/10/09 12:48:09;;;;;;;19.08;8.45;;;;;;;23.57;58.46;101924.47;5081683;28;20024;-69
2023/10/09 12:50:41;;;;;;;18.58;8.30;;;;;;;23.57;58.95;101916.38;5082500;28;20435;-71
2023/10/09 12:53:07;;;;;;;14.88;8.00;;;;;;;23.63;59.02;101915.88;5073862;28;20076;-70
2023/10/09 12:55:40;;;;;;;15.80;7.35;;;;;;;23.55;58.72;101915.66;5077971;28;20075;-70
2023/10/09 12:58:08;;;;;;;16.35;7.63;;;;;;;23.64;58.30;101908.69;5079744;28;20040;-70
2023/10/09 13:00:39;;;;;;;15.60;8.38;;;;;;;23.51;59.36;101906.06;5082480;28;20487;-69
2023/10/09 13:03:16;;;;;;;12.20;7.60;;;;;;;23.59;57.91;101900.91;5082395;28;20036;-70
2023/10/09 13:05:54;;;;;;;11.93;7.78;;;;;;;23.91;57.62;101890.28;5073244;28;20026;-70
2023/10/09 13:08:36;;;;;;;9.85;7.15;;;;;;;24.08;57.27;101894.34;5081237;28;20439;-69
2023/10/09 13:11:16;;;;;;;13.35;7.00;;;;;;;24.20;56.80;101897.91;5079120;28;20036;-69
2023/10/09 13:13:43;;;;;;;12.95;7.30;;;;;;;24.24;55.89;101896.66;5071629;28;20019;-70
2023/10/09 13:16:24;;;;;;;14.45;7.68;;;;;;;24.20;55.78;101892.50;5074247;28;20035;-70
2023/10/09 13:18:53;;;;;;;11.23;7.22;;;;;;;24.01;56.53;101900.38;5081143;28;20095;-70
2023/10/09 13:21:20;;;;;;;13.77;8.07;;;;;;;23.88;56.11;101895.97;5082111;28;20026;-69
2023/10/09 13:23:50;;;;;;;11.38;6.90;;;;;;;23.74;56.22;101903.44;5081626;28;20556;-70
2023/10/09 13:26:17;;;;;;;12.95;7.50;;;;;;;23.51;56.52;101903.38;5075647;28;20028;-69
2023/10/09 13:28:47;;;;;;;15.27;7.85;;;;;;;23.57;56.80;101902.03;5080820;28;20032;-70
2023/10/09 13:31:14;;;;;;;15.13;8.20;;;;;;;23.59;56.60;101909.00;5082154;28;20020;-69
2023/10/09 13:33:40;;;;;;;11.65;7.28;;;;;;;23.74;56.69;101909.69;5084831;28;20066;-70
2023/10/09 13:36:15;;;;;;;12.68;7.65;;;;;;;23.84;57.01;101912.53;5075628;28;20082;-69
2023/10/09 13:38:43;;;;;;;13.75;7.38;;;;;;;23.82;55.72;101911.78;5082673;28;20036;-70
2023/10/09 13:41:12;;;;;;;10.93;6.95;;;;;;;23.88;56.21;101901.38;5074356;28;20097;-69
2023/10/09 13:43:40;;;;;;;9.95;6.30;;;;;;;24.31;55.04;101905.16;5082871;28;20032;-70
2023/10/09 13:46:08;;;;;;;14.75;7.88;;;;;;;24.61;54.91;101913.47;5078547;28;20415;-70
2023/10/09 13:48:38;;;;;;;15.40;8.20;;;;;;;24.74;54.03;101920.56;5082698;28;20024;-70